createdAt,value
2022-12-11T00:00:15.777Z,11.50
2022-12-11T00:02:43.096Z,11.17
2022-12-11T00:05:10.526Z,11.50
2022-12-11T00:07:38.168Z,11.47
2022-12-11T00:10:05.648Z,10.47
2022-12-11T00:12:32.829Z,10.43
2022-12-11T00:15:00.038Z,11.07
2022-12-11T00:17:27.204Z,10.57
2022-12-11T00:19:54.405Z,9.97
2022-12-11T00:22:21.717Z,11.17
2022-12-11T00:24:48.956Z,10.40
2022-12-11T00:27:16.257Z,9.80
2022-12-11T00:29:43.753Z,9.40
2022-12-11T00:32:10.997Z,9.63
2022-12-11T00:34:38.237Z,9.50
2022-12-11T00:37:05.465Z,10.10
2022-12-11T00:39:32.758Z,10.10
2022-12-11T00:41:59.952Z,8.67
2022-12-11T00:44:27.156Z,9.43
2022-12-11T00:46:54.386Z,9.53
2022-12-11T00:49:21.565Z,9.90
2022-12-11T00:51:48.798Z,10.47
2022-12-11T00:54:15.965Z,8.73
2022-12-11T00:56:43.398Z,9.00
2022-12-11T00:59:10.631Z,9.33
2022-12-11T01:01:37.829Z,9.37
2022-12-11T01:04:05.104Z,8.83
2022-12-11T01:06:32.299Z,9.17
2022-12-11T01:09:18.213Z,8.67
2022-12-11T01:11:45.426Z,9.17
2022-12-11T01:14:13.002Z,9.40
2022-12-11T01:16:40.304Z,8.77
2022-12-11T01:19:07.579Z,8.80
2022-12-11T01:21:34.762Z,7.67
2022-12-11T01:24:01.931Z,8.80
2022-12-11T01:26:30.726Z,7.97
2022-12-11T01:28:57.901Z,8.70
2022-12-11T01:31:25.122Z,8.43
2022-12-11T01:33:54.809Z,8.20
2022-12-11T01:36:22.591Z,8.30
2022-12-11T01:38:50.406Z,8.60
2022-12-11T01:41:18.405Z,8.00
2022-12-11T01:43:57.886Z,8.93
2022-12-11T01:46:25.464Z,9.07
2022-12-11T01:48:53.300Z,9.23
2022-12-11T01:51:20.977Z,8.27
2022-12-11T01:53:51.062Z,8.03
2022-12-11T01:56:19.047Z,8.17
2022-12-11T01:58:54.610Z,10.70
2022-12-11T02:01:35.712Z,8.23
2022-12-11T02:04:03.226Z,7.10
2022-12-11T02:06:41.118Z,7.43
2022-12-11T02:09:10.587Z,7.77
2022-12-11T02:11:48.289Z,7.00
2022-12-11T02:14:15.474Z,6.83
2022-12-11T02:16:47.079Z,8.00
2022-12-11T02:19:14.297Z,9.37
2022-12-11T02:21:44.324Z,7.07
2022-12-11T02:24:30.432Z,7.10
2022-12-11T02:27:00.659Z,7.67
2022-12-11T02:29:34.005Z,8.33
2022-12-11T02:32:04.011Z,7.33
2022-12-11T02:35:00.558Z,7.70
2022-12-11T02:37:29.903Z,10.40
2022-12-11T02:39:57.806Z,6.27
2022-12-11T02:42:27.752Z,7.43
2022-12-11T02:44:57.356Z,8.03
2022-12-11T02:47:26.221Z,7.00
2022-12-11T02:49:53.917Z,7.63
2022-12-11T02:52:22.673Z,7.67
2022-12-11T02:54:50.354Z,7.03
2022-12-11T02:57:46.649Z,6.80
2022-12-11T03:00:14.389Z,5.97
2022-12-11T03:02:42.352Z,6.73
2022-12-11T03:05:10.280Z,6.63
2022-12-11T03:07:40.766Z,7.03
2022-12-11T03:10:10.404Z,7.47
2022-12-11T03:12:39.517Z,6.33
2022-12-11T03:15:10.146Z,6.07
2022-12-11T03:17:46.216Z,6.97
2022-12-11T03:20:16.212Z,6.27
2022-12-11T03:22:43.347Z,7.83
2022-12-11T03:25:33.364Z,6.70
2022-12-11T03:28:16.109Z,6.57
2022-12-11T03:30:44.769Z,6.10
2022-12-11T03:33:14.537Z,6.13
2022-12-11T03:35:54.235Z,6.17
2022-12-11T03:38:26.863Z,5.57
2022-12-11T03:40:55.534Z,5.57
2022-12-11T03:43:23.299Z,6.60
2022-12-11T03:45:51.612Z,5.90
2022-12-11T03:48:19.549Z,6.40
2022-12-11T03:50:47.637Z,6.27
2022-12-11T03:53:15.077Z,6.07
2022-12-11T03:55:42.472Z,6.47
2022-12-11T03:58:09.654Z,6.30
2022-12-11T04:00:36.959Z,6.20
2022-12-11T04:03:14.233Z,4.87
2022-12-11T04:05:46.327Z,5.87
2022-12-11T04:08:14.088Z,5.27
2022-12-11T04:10:41.493Z,5.90
2022-12-11T04:13:09.451Z,5.37
2022-12-11T04:15:37.432Z,5.43
2022-12-11T04:18:24.056Z,5.57
2022-12-11T04:21:12.438Z,5.50
2022-12-11T04:23:58.293Z,5.10
2022-12-11T04:26:25.780Z,4.70
2022-12-11T04:28:52.976Z,5.20
2022-12-11T04:31:21.397Z,5.20
2022-12-11T04:33:48.678Z,5.60
2022-12-11T04:36:16.141Z,5.17
2022-12-11T04:38:43.359Z,5.67
2022-12-11T04:41:12.110Z,5.07
2022-12-11T04:43:39.290Z,5.03
2022-12-11T04:46:08.583Z,5.23
2022-12-11T04:48:35.911Z,5.17
2022-12-11T04:51:03.176Z,5.17
2022-12-11T04:53:30.447Z,5.67
2022-12-11T04:55:57.608Z,5.20
2022-12-11T04:58:25.557Z,5.93
2022-12-11T05:00:53.243Z,4.40
2022-12-11T05:03:20.940Z,4.73
2022-12-11T05:05:51.731Z,4.60
2022-12-11T05:08:22.527Z,5.23
2022-12-11T05:10:59.876Z,4.80
2022-12-11T05:13:27.696Z,4.53
2022-12-11T05:15:55.300Z,5.17
2022-12-11T05:18:22.787Z,4.50
2022-12-11T05:21:00.628Z,4.97
2022-12-11T05:23:27.876Z,5.20
2022-12-11T05:25:55.843Z,4.70
2022-12-11T05:28:25.016Z,5.43
2022-12-11T05:30:59.506Z,5.03
2022-12-11T05:33:27.166Z,4.23
2022-12-11T05:35:54.379Z,5.10
2022-12-11T05:38:22.664Z,4.10
2022-12-11T05:41:03.475Z,5.07
2022-12-11T05:43:32.087Z,4.83
2022-12-11T05:46:06.174Z,4.77
2022-12-11T05:48:33.640Z,4.10
2022-12-11T05:51:01.643Z,5.30
2022-12-11T05:53:29.323Z,8.13
2022-12-11T05:56:02.349Z,4.60
2022-12-11T05:58:30.049Z,4.90
2022-12-11T06:00:57.249Z,4.93
2022-12-11T06:03:24.591Z,4.20
2022-12-11T06:05:51.913Z,4.60
2022-12-11T06:08:19.322Z,4.47
2022-12-11T06:10:50.657Z,4.20
2022-12-11T06:13:18.589Z,4.27
2022-12-11T06:15:45.849Z,4.43
2022-12-11T06:18:13.040Z,4.30
2022-12-11T06:20:40.319Z,5.20
2022-12-11T06:23:07.582Z,4.13
2022-12-11T06:25:34.982Z,4.23
2022-12-11T06:28:02.180Z,5.20
2022-12-11T06:30:38.948Z,4.43
2022-12-11T06:33:07.131Z,5.30
2022-12-11T06:35:40.248Z,4.10
2022-12-11T06:38:08.882Z,4.27
2022-12-11T06:40:36.072Z,4.60
2022-12-11T06:43:03.605Z,4.37
2022-12-11T06:45:30.990Z,4.33
2022-12-11T06:47:59.031Z,4.47
2022-12-11T06:50:26.344Z,4.53
2022-12-11T06:52:53.564Z,4.47
2022-12-11T06:55:20.771Z,4.33
2022-12-11T06:57:48.077Z,4.20
2022-12-11T07:00:15.515Z,3.83
2022-12-11T07:02:42.785Z,4.10
2022-12-11T07:05:10.289Z,10.70
2022-12-11T07:07:37.983Z,4.70
2022-12-11T07:10:08.331Z,5.40
2022-12-11T07:12:35.874Z,4.90
2022-12-11T07:15:03.192Z,4.87
2022-12-11T07:17:30.456Z,4.80
2022-12-11T07:19:57.664Z,4.93
2022-12-11T07:22:24.838Z,4.33
2022-12-11T07:24:52.027Z,4.97
2022-12-11T07:27:19.470Z,5.73
2022-12-11T07:29:46.783Z,5.70
2022-12-11T07:35:46.523Z,6.27
2022-12-11T07:38:13.454Z,6.67
2022-12-11T07:40:40.425Z,7.60
2022-12-11T07:43:07.300Z,7.77
2022-12-11T07:45:34.145Z,13.10
2022-12-11T07:48:00.988Z,8.07
2022-12-11T07:50:27.802Z,9.23
2022-12-11T07:52:54.633Z,7.90
2022-12-11T07:55:21.421Z,8.60
2022-12-11T07:57:48.224Z,7.03
2022-12-11T08:00:15.306Z,7.73
2022-12-11T08:02:42.238Z,8.50
2022-12-11T08:05:09.427Z,7.67
2022-12-11T08:07:36.465Z,13.13
2022-12-11T08:10:04.810Z,9.83
2022-12-11T08:12:31.908Z,9.80
2022-12-11T08:14:58.822Z,9.00
2022-12-11T08:17:29.554Z,8.90
2022-12-11T08:19:58.696Z,7.77
2022-12-11T08:22:25.674Z,8.57
2022-12-11T08:24:52.473Z,8.20
2022-12-11T08:27:19.360Z,9.57
2022-12-11T08:29:47.520Z,10.90
2022-12-11T08:32:16.769Z,7.67
2022-12-11T08:34:43.613Z,8.20
2022-12-11T08:37:10.420Z,8.43
2022-12-11T08:39:37.498Z,8.23
2022-12-11T08:42:05.293Z,8.47
2022-12-11T08:44:32.074Z,8.73
2022-12-11T08:46:58.838Z,8.27
2022-12-11T08:49:27.598Z,8.40
2022-12-11T08:51:57.996Z,10.40
2022-12-11T08:54:24.762Z,9.30
2022-12-11T08:56:57.625Z,7.77
2022-12-11T08:59:25.810Z,8.80
2022-12-11T09:01:54.419Z,11.03
2022-12-11T09:04:21.261Z,9.10
2022-12-11T09:06:48.567Z,10.80
2022-12-11T09:09:15.832Z,8.23
2022-12-11T09:11:42.794Z,8.73
2022-12-11T09:14:09.624Z,8.80
2022-12-11T09:16:40.500Z,7.37
2022-12-11T09:19:10.823Z,9.10
2022-12-11T09:21:37.735Z,8.87
2022-12-11T09:24:04.876Z,7.63
2022-12-11T09:26:32.119Z,7.60
2022-12-11T09:28:59.156Z,8.83
2022-12-11T09:31:29.167Z,9.83
2022-12-11T09:34:00.953Z,9.50
2022-12-11T09:36:27.928Z,8.57
2022-12-11T09:38:54.872Z,9.90
2022-12-11T09:41:21.742Z,10.07
2022-12-11T09:44:22.247Z,63.53
2022-12-11T09:46:50.201Z,1042.00
2022-12-11T09:49:38.985Z,1425.20
2022-12-11T09:52:35.169Z,967.87
2022-12-11T09:55:13.575Z,744.17
2022-12-11T09:57:50.812Z,637.43
2022-12-11T10:00:41.416Z,466.60
2022-12-11T10:03:08.995Z,268.40
2022-12-11T10:05:44.965Z,201.97
2022-12-11T10:08:15.188Z,182.07
2022-12-11T10:10:44.311Z,218.13
2022-12-11T10:13:11.483Z,172.20
2022-12-11T10:15:44.763Z,153.90
2022-12-11T10:18:17.252Z,148.53
2022-12-11T10:20:45.392Z,126.10
2022-12-11T10:23:20.241Z,125.00
2022-12-11T10:26:07.705Z,125.73
2022-12-11T10:28:35.323Z,71.20
2022-12-11T10:31:05.553Z,50.30
2022-12-11T10:33:32.746Z,42.17
2022-12-11T10:35:59.944Z,45.37
2022-12-11T10:38:33.988Z,40.03
2022-12-11T10:41:21.223Z,30.73
2022-12-11T10:43:50.077Z,22.33
2022-12-11T10:46:17.764Z,18.00
2022-12-11T10:48:50.262Z,19.00
2022-12-11T10:51:17.776Z,19.47
2022-12-11T10:53:49.949Z,18.57
2022-12-11T10:56:25.445Z,15.37
2022-12-11T10:58:52.844Z,11.17
2022-12-11T11:01:22.203Z,11.13
2022-12-11T11:04:08.493Z,9.63
2022-12-11T11:06:36.336Z,12.37
2022-12-11T11:09:03.873Z,9.40
2022-12-11T11:11:33.839Z,9.40
2022-12-11T11:14:16.410Z,10.30
2022-12-11T11:16:45.240Z,8.40
2022-12-11T11:19:21.596Z,8.20
2022-12-11T11:21:57.420Z,8.17
2022-12-11T11:24:29.612Z,8.67
2022-12-11T11:27:13.149Z,8.23
2022-12-11T11:29:42.004Z,7.77
2022-12-11T11:32:20.284Z,8.57
2022-12-11T11:34:47.509Z,7.30
2022-12-11T11:37:31.666Z,8.70
2022-12-11T11:40:02.825Z,8.30
2022-12-11T11:42:36.594Z,7.17
2022-12-11T11:45:06.522Z,6.50
2022-12-11T11:47:40.139Z,6.63
2022-12-11T11:50:18.579Z,8.10
2022-12-11T11:52:54.700Z,7.40
2022-12-11T11:55:42.384Z,6.77
2022-12-11T11:58:19.328Z,7.20
2022-12-11T12:00:46.520Z,7.30
2022-12-11T12:03:15.950Z,15.70
2022-12-11T12:05:46.073Z,9.40
2022-12-11T12:08:13.375Z,8.97
2022-12-11T12:11:09.600Z,11.00
2022-12-11T12:14:03.444Z,9.10
2022-12-11T12:16:55.389Z,7.77
2022-12-11T12:19:33.135Z,6.30
2022-12-11T12:22:05.938Z,6.90
2022-12-11T12:25:07.231Z,8.83
2022-12-11T12:27:52.195Z,5.77
2022-12-11T12:30:23.033Z,17.40
2022-12-11T12:32:53.284Z,9.60
2022-12-11T12:35:29.613Z,8.00
2022-12-11T12:37:59.987Z,9.03
2022-12-11T12:40:31.571Z,8.50
2022-12-11T12:43:06.828Z,8.10
2022-12-11T12:45:52.026Z,7.83
2022-12-11T12:48:19.510Z,7.93
2022-12-11T12:50:48.723Z,8.90
2022-12-11T12:53:20.510Z,8.90
2022-12-11T12:55:48.794Z,7.90
2022-12-11T12:58:27.076Z,7.50
2022-12-11T13:00:55.035Z,7.00
2022-12-11T13:03:26.782Z,7.00
2022-12-11T13:06:02.417Z,7.10
2022-12-11T13:08:31.677Z,5.90
2022-12-11T13:11:04.209Z,6.90
2022-12-11T13:13:54.964Z,6.50
2022-12-11T13:16:26.860Z,7.10
2022-12-11T13:18:54.585Z,7.93
2022-12-11T13:21:30.044Z,7.50
2022-12-11T13:24:14.445Z,7.40
2022-12-11T13:26:41.988Z,6.63
2022-12-11T13:29:27.707Z,6.63
2022-12-11T13:31:59.488Z,6.73
2022-12-11T13:34:29.040Z,6.67
2022-12-11T13:36:57.776Z,6.93
2022-12-11T13:39:26.189Z,6.93
2022-12-11T13:41:54.678Z,7.00
2022-12-11T13:44:26.809Z,6.93
2022-12-11T13:46:55.612Z,6.33
2022-12-11T13:49:24.635Z,6.20
2022-12-11T13:51:52.849Z,6.17
2022-12-11T13:54:20.296Z,8.00
2022-12-11T13:57:05.199Z,7.00
2022-12-11T13:59:37.109Z,5.63
2022-12-11T14:02:06.234Z,5.17
2022-12-11T14:04:34.764Z,5.20
2022-12-11T14:07:02.536Z,6.50
2022-12-11T14:09:30.009Z,6.67
2022-12-11T14:11:59.169Z,5.73
2022-12-11T14:14:35.439Z,6.77
2022-12-11T14:17:02.808Z,5.80
2022-12-11T14:19:30.062Z,5.80
2022-12-11T14:21:58.547Z,6.13
2022-12-11T14:24:26.004Z,6.47
2022-12-11T14:26:54.062Z,6.30
2022-12-11T14:29:29.688Z,7.80
2022-12-11T14:31:57.828Z,6.23
2022-12-11T14:34:32.032Z,5.93
2022-12-11T14:36:59.793Z,5.53
2022-12-11T14:39:36.240Z,6.00
2022-12-11T14:42:03.557Z,5.67
2022-12-11T14:44:32.458Z,6.20
2022-12-11T14:47:03.498Z,5.37
2022-12-11T14:49:30.700Z,6.90
2022-12-11T14:51:58.569Z,6.67
2022-12-11T14:54:25.766Z,6.13
2022-12-11T14:56:53.026Z,5.83
2022-12-11T14:59:26.985Z,11.03
2022-12-11T15:02:02.612Z,11.97
2022-12-11T15:04:31.976Z,8.67
2022-12-11T15:06:59.500Z,8.93
2022-12-11T15:09:26.720Z,8.33
2022-12-11T15:11:56.336Z,10.37
2022-12-11T15:14:24.700Z,7.80
2022-12-11T15:16:52.815Z,10.20
2022-12-11T15:19:40.054Z,8.07
2022-12-11T15:22:09.289Z,8.60
2022-12-11T15:24:41.710Z,8.10
2022-12-11T15:27:21.837Z,13.77
2022-12-11T15:29:49.040Z,11.63
2022-12-11T15:32:21.804Z,10.57
2022-12-11T15:34:49.030Z,17.40
2022-12-11T15:37:20.256Z,17.63
2022-12-11T15:39:47.496Z,7.90
2022-12-11T15:42:15.777Z,9.83
2022-12-11T15:44:43.045Z,9.57
2022-12-11T15:47:18.928Z,8.30
2022-12-11T15:49:46.117Z,7.50
2022-12-11T15:52:13.336Z,9.00
2022-12-11T15:54:40.562Z,8.30
2022-12-11T15:57:13.504Z,7.60
2022-12-11T15:59:40.749Z,7.97
2022-12-11T16:02:13.021Z,7.67
2022-12-11T16:04:40.693Z,7.20
2022-12-11T16:07:14.640Z,10.47
2022-12-11T16:09:41.851Z,7.23
2022-12-11T16:12:09.264Z,8.13
2022-12-11T16:14:39.541Z,7.53
2022-12-11T16:17:07.663Z,7.10
2022-12-11T16:19:36.594Z,7.80
2022-12-11T16:22:04.260Z,7.63
2022-12-11T16:24:31.960Z,5.90
2022-12-11T16:26:59.211Z,7.47
2022-12-11T16:29:26.518Z,7.00
2022-12-11T16:31:53.948Z,6.83
2022-12-11T16:34:25.632Z,6.67
2022-12-11T16:36:53.105Z,5.90
2022-12-11T16:39:20.321Z,6.20
2022-12-11T16:41:47.744Z,6.17
2022-12-11T16:44:14.923Z,6.07
2022-12-11T16:46:42.174Z,6.70
2022-12-11T16:49:09.423Z,8.53
2022-12-11T16:51:36.595Z,7.30
2022-12-11T16:54:04.136Z,7.67
2022-12-11T16:56:31.433Z,6.53
2022-12-11T16:58:58.761Z,7.27
2022-12-11T17:01:26.038Z,6.13
2022-12-11T17:03:53.342Z,8.13
2022-12-11T17:06:20.606Z,7.47
2022-12-11T17:08:47.969Z,7.30
2022-12-11T17:11:16.564Z,7.30
2022-12-11T17:13:44.244Z,8.10
2022-12-11T17:16:17.855Z,7.23
2022-12-11T17:18:45.398Z,6.80
2022-12-11T17:21:13.993Z,7.13
2022-12-11T17:23:41.509Z,6.80
2022-12-11T17:26:08.880Z,6.70
2022-12-11T17:28:36.510Z,6.50
2022-12-11T17:31:08.162Z,7.70
2022-12-11T17:33:35.733Z,6.93
2022-12-11T17:36:04.461Z,7.07
2022-12-11T17:38:31.695Z,7.77
2022-12-11T17:40:58.918Z,7.67
2022-12-11T17:43:26.175Z,7.13
2022-12-11T17:45:55.200Z,6.73
2022-12-11T17:48:22.851Z,7.00
2022-12-11T17:50:50.565Z,7.97
2022-12-11T17:53:18.882Z,6.70
2022-12-11T17:55:46.534Z,6.67
2022-12-11T17:58:15.004Z,7.17
2022-12-11T18:00:43.504Z,7.37
2022-12-11T18:03:11.030Z,7.70
2022-12-11T18:05:47.039Z,7.83
2022-12-11T18:08:15.726Z,7.90
2022-12-11T18:10:43.284Z,6.93
2022-12-11T18:13:10.506Z,7.23
2022-12-11T18:15:38.185Z,6.57
2022-12-11T18:18:05.937Z,6.07
2022-12-11T18:20:33.832Z,6.70
2022-12-11T18:23:01.284Z,6.40
2022-12-11T18:25:28.609Z,6.90
2022-12-11T18:27:56.066Z,6.30
2022-12-11T18:30:24.497Z,7.23
2022-12-11T18:32:52.095Z,7.13
2022-12-11T18:35:19.584Z,7.50
2022-12-11T18:37:46.804Z,7.40
2022-12-11T18:40:14.068Z,6.73
2022-12-11T18:42:41.281Z,6.43
2022-12-11T18:45:08.910Z,7.63
2022-12-11T18:47:37.423Z,7.10
2022-12-11T18:50:08.001Z,7.20
2022-12-11T18:52:35.671Z,7.00
2022-12-11T18:55:02.944Z,6.73
2022-12-11T18:57:30.222Z,9.03
2022-12-11T19:00:02.359Z,13.73
2022-12-11T19:02:29.592Z,38.63
2022-12-11T19:04:56.825Z,38.50
2022-12-11T19:07:24.033Z,51.30
2022-12-11T19:09:51.334Z,50.17
2022-12-11T19:12:18.561Z,53.03
2022-12-11T19:14:45.776Z,47.70
2022-12-11T19:17:13.072Z,40.53
2022-12-11T19:19:40.724Z,42.30
2022-12-11T19:22:07.886Z,44.20
2022-12-11T19:24:35.132Z,42.03
2022-12-11T19:27:02.322Z,41.27
2022-12-11T19:29:33.600Z,46.00
2022-12-11T19:32:02.509Z,41.53
2022-12-11T19:34:29.755Z,37.23
2022-12-11T19:36:57.074Z,34.53
2022-12-11T19:39:24.373Z,34.50
2022-12-11T19:41:51.572Z,32.00
2022-12-11T19:44:18.795Z,31.90
2022-12-11T19:46:46.080Z,31.70
2022-12-11T19:49:13.428Z,29.43
2022-12-11T19:51:41.794Z,26.43
2022-12-11T19:54:10.132Z,33.00
2022-12-11T19:56:37.660Z,30.63
2022-12-11T19:59:06.125Z,25.43
2022-12-11T20:01:35.467Z,26.73
2022-12-11T20:04:04.995Z,23.50
2022-12-11T20:06:32.814Z,24.57
2022-12-11T20:09:00.127Z,18.13
2022-12-11T20:11:27.502Z,21.13
2022-12-11T20:13:55.645Z,20.40
2022-12-11T20:16:45.823Z,22.73
2022-12-11T20:19:10.108Z,22.00
2022-12-11T20:21:37.266Z,22.23
2022-12-11T20:24:04.575Z,23.60
2022-12-11T20:26:32.603Z,21.23
2022-12-11T20:28:59.927Z,21.43
2022-12-11T20:31:27.127Z,19.20
2022-12-11T20:33:54.576Z,18.23
2022-12-11T20:36:22.542Z,17.80
2022-12-11T20:38:50.157Z,17.30
2022-12-11T20:41:19.065Z,20.90
2022-12-11T20:43:46.589Z,18.80
2022-12-11T20:46:15.103Z,17.80
2022-12-11T20:48:43.285Z,17.17
2022-12-11T20:51:12.009Z,14.40
2022-12-11T20:53:39.478Z,16.93
2022-12-11T20:56:14.260Z,16.40
2022-12-11T20:58:41.694Z,17.07
2022-12-11T21:01:13.917Z,15.57
2022-12-11T21:03:42.226Z,16.17
2022-12-11T21:06:10.331Z,22.60
2022-12-11T21:08:37.482Z,17.43
2022-12-11T21:11:06.862Z,16.23
2022-12-11T21:13:35.367Z,16.97
2022-12-11T21:16:04.927Z,13.43
2022-12-11T21:18:32.237Z,14.07
2022-12-11T21:20:59.637Z,13.53
2022-12-11T21:23:27.445Z,12.43
2022-12-11T21:25:54.994Z,14.27
2022-12-11T21:28:22.693Z,14.37
2022-12-11T21:30:49.970Z,11.20
2022-12-11T21:33:17.644Z,10.23
2022-12-11T21:35:44.860Z,13.53
2022-12-11T21:38:12.685Z,11.93
2022-12-11T21:40:39.872Z,14.67
2022-12-11T21:43:07.086Z,10.33
2022-12-11T21:48:23.517Z,9.73
2022-12-11T21:57:56.285Z,12.00
2022-12-11T22:00:23.628Z,11.67
2022-12-11T22:02:51.020Z,11.03
2022-12-11T22:05:18.385Z,11.50
2022-12-11T22:07:45.647Z,11.23
2022-12-11T22:10:49.839Z,9.10
2022-12-11T22:13:17.136Z,10.60
2022-12-11T22:15:44.371Z,8.43
2022-12-11T22:18:11.633Z,11.13
2022-12-11T22:21:12.830Z,8.77
2022-12-11T22:23:40.071Z,8.23
2022-12-11T22:26:08.125Z,7.20
2022-12-11T22:28:35.376Z,8.03
2022-12-11T22:31:02.800Z,9.87
2022-12-11T22:33:30.067Z,7.10
2022-12-11T22:36:00.404Z,7.93
2022-12-11T22:38:27.621Z,9.90
2022-12-11T22:40:55.411Z,7.90
2022-12-11T22:43:22.953Z,7.33
2022-12-11T22:45:50.199Z,6.57
2022-12-11T22:48:17.453Z,7.53
2022-12-11T22:51:21.787Z,9.07
2022-12-11T22:53:49.088Z,7.07
2022-12-11T22:56:16.319Z,8.03
2022-12-11T22:58:43.530Z,8.33
2022-12-11T23:01:15.202Z,7.30
2022-12-11T23:03:42.530Z,6.63
2022-12-11T23:06:11.345Z,6.53
2022-12-11T23:08:39.180Z,6.10
2022-12-11T23:11:17.714Z,5.97
2022-12-11T23:13:44.933Z,6.60
2022-12-11T23:16:12.618Z,6.60
2022-12-11T23:18:39.955Z,6.27
2022-12-11T23:21:07.271Z,6.90
2022-12-11T23:23:34.486Z,6.00
2022-12-11T23:26:01.642Z,6.40
2022-12-11T23:28:29.054Z,5.80
2022-12-11T23:30:56.310Z,5.73
2022-12-11T23:33:23.512Z,6.80
2022-12-11T23:35:50.775Z,6.00
2022-12-11T23:38:17.998Z,5.60
2022-12-11T23:40:45.153Z,5.30
2022-12-11T23:43:12.367Z,6.00
2022-12-11T23:45:39.525Z,5.60
2022-12-11T23:48:06.760Z,5.10
2022-12-11T23:50:33.982Z,6.07
2022-12-11T23:53:01.179Z,6.10
2022-12-11T23:55:28.722Z,5.07
2022-12-11T23:57:55.910Z,6.97
